createdAt,value
2022-12-04T00:02:10.659Z,4.60
2022-12-04T00:04:37.275Z,4.75
2022-12-04T00:07:04.115Z,4.38
2022-12-04T00:09:30.632Z,4.80
2022-12-04T00:11:57.119Z,4.38
2022-12-04T00:14:23.977Z,5.88
2022-12-04T00:16:50.616Z,6.15
2022-12-04T00:19:17.482Z,4.60
2022-12-04T00:21:45.377Z,4.60
2022-12-04T00:24:12.557Z,6.38
2022-12-04T00:26:39.117Z,5.22
2022-12-04T00:29:05.638Z,5.10
2022-12-04T00:31:32.247Z,4.72
2022-12-04T00:33:59.135Z,6.60
2022-12-04T00:36:27.364Z,6.97
2022-12-04T00:38:54.793Z,6.18
2022-12-04T00:41:24.335Z,5.00
2022-12-04T00:46:17.791Z,5.43
2022-12-04T00:48:44.465Z,5.97
2022-12-04T00:51:16.565Z,4.78
2022-12-04T00:53:43.341Z,4.18
2022-12-04T00:56:17.438Z,5.10
2022-12-04T00:58:45.167Z,6.13
2022-12-04T01:01:17.126Z,5.60
2022-12-04T01:03:44.158Z,5.47
2022-12-04T01:06:34.056Z,5.13
2022-12-04T01:09:01.904Z,8.20
2022-12-04T01:11:29.848Z,8.05
2022-12-04T01:13:57.301Z,6.75
2022-12-04T01:16:33.839Z,6.63
2022-12-04T01:19:00.863Z,5.70
2022-12-04T01:21:27.706Z,5.07
2022-12-04T01:23:54.613Z,5.13
2022-12-04T01:26:23.663Z,5.38
2022-12-04T01:28:50.202Z,5.55
2022-12-04T01:31:18.967Z,6.25
2022-12-04T01:33:46.528Z,5.15
2022-12-04T01:36:15.455Z,7.68
2022-12-04T01:38:42.717Z,6.30
2022-12-04T01:41:10.553Z,5.88
2022-12-04T01:43:38.142Z,5.75
2022-12-04T01:46:05.242Z,7.60
2022-12-04T01:48:33.066Z,5.47
2022-12-04T01:51:10.548Z,7.30
2022-12-04T01:53:41.440Z,6.57
2022-12-04T01:56:08.663Z,7.18
2022-12-04T01:58:44.342Z,7.95
2022-12-04T02:01:11.065Z,6.82
2022-12-04T02:03:38.973Z,7.72
2022-12-04T02:06:06.191Z,5.38
2022-12-04T02:08:35.292Z,5.47
2022-12-04T02:11:27.989Z,5.28
2022-12-04T02:14:27.499Z,4.30
2022-12-04T02:19:51.342Z,5.85
2022-12-04T02:22:48.689Z,4.90
2022-12-04T02:25:26.759Z,5.50
2022-12-04T02:28:34.645Z,5.18
2022-12-04T02:31:05.179Z,4.13
2022-12-04T02:33:39.828Z,4.00
2022-12-04T02:36:17.527Z,5.30
2022-12-04T02:38:48.348Z,4.13
2022-12-04T02:41:19.407Z,3.78
2022-12-04T02:43:49.075Z,4.60
2022-12-04T02:46:27.300Z,4.80
2022-12-04T02:48:57.408Z,4.32
2022-12-04T02:51:25.726Z,5.10
2022-12-04T02:54:33.848Z,6.15
2022-12-04T02:57:02.274Z,4.97
2022-12-04T02:59:38.011Z,5.53
2022-12-04T03:02:09.808Z,4.13
2022-12-04T03:04:38.260Z,4.20
2022-12-04T03:07:11.951Z,5.15
2022-12-04T03:09:51.860Z,5.15
2022-12-04T03:12:22.195Z,5.13
2022-12-04T03:15:05.306Z,7.45
2022-12-04T03:17:36.309Z,6.13
2022-12-04T03:20:06.374Z,4.25
2022-12-04T03:22:34.119Z,5.05
2022-12-04T03:25:01.180Z,4.35
2022-12-04T03:27:34.865Z,4.22
2022-12-04T03:30:11.105Z,5.53
2022-12-04T03:32:46.184Z,6.50
2022-12-04T03:35:38.067Z,6.28
2022-12-04T03:38:13.491Z,6.07
2022-12-04T03:40:45.284Z,8.65
2022-12-04T03:43:20.770Z,5.82
2022-12-04T03:46:00.125Z,5.32
2022-12-04T03:48:31.560Z,6.00
2022-12-04T03:51:07.100Z,6.32
2022-12-04T03:53:40.156Z,6.05
2022-12-04T03:56:11.753Z,8.25
2022-12-04T03:58:42.952Z,5.88
2022-12-04T04:01:10.813Z,5.80
2022-12-04T04:03:41.350Z,5.78
2022-12-04T04:06:10.899Z,6.63
2022-12-04T04:11:07.394Z,6.93
2022-12-04T04:13:59.512Z,6.05
2022-12-04T04:16:47.145Z,6.22
2022-12-04T04:19:34.933Z,4.65
2022-12-04T04:22:22.112Z,4.80
2022-12-04T04:24:58.752Z,5.05
2022-12-04T04:27:25.350Z,4.55
2022-12-04T04:29:52.956Z,3.83
2022-12-04T04:32:41.929Z,4.38
2022-12-04T04:35:14.331Z,5.35
2022-12-04T04:37:48.730Z,4.53
2022-12-04T04:40:36.480Z,4.32
2022-12-04T04:43:23.385Z,4.90
2022-12-04T04:45:58.875Z,4.28
2022-12-04T04:48:29.532Z,4.32
2022-12-04T04:50:56.551Z,3.33
2022-12-04T04:53:27.004Z,5.35
2022-12-04T04:55:53.812Z,5.05
2022-12-04T04:58:21.912Z,3.50
2022-12-04T05:01:00.259Z,3.97
2022-12-04T05:03:27.620Z,4.53
2022-12-04T05:05:54.401Z,3.45
2022-12-04T05:08:21.168Z,5.70
2022-12-04T05:10:47.763Z,3.75
2022-12-04T05:13:16.312Z,4.28
2022-12-04T05:15:43.147Z,5.43
2022-12-04T05:18:10.372Z,7.53
2022-12-04T05:20:40.772Z,6.93
2022-12-04T05:23:07.495Z,5.15
2022-12-04T05:25:34.099Z,5.78
2022-12-04T05:28:00.659Z,5.57
2022-12-04T05:30:27.188Z,5.60
2022-12-04T05:32:53.735Z,4.70
2022-12-04T05:35:20.271Z,6.53
2022-12-04T05:37:47.473Z,5.32
2022-12-04T05:40:14.095Z,5.25
2022-12-04T05:42:40.543Z,4.40
2022-12-04T05:45:07.550Z,6.15
2022-12-04T05:47:39.140Z,4.82
2022-12-04T05:50:06.663Z,4.85
2022-12-04T05:52:33.152Z,6.90
2022-12-04T05:54:59.661Z,5.78
2022-12-04T05:57:29.651Z,7.28
2022-12-04T05:59:56.829Z,5.45
2022-12-04T06:02:23.727Z,6.50
2022-12-04T06:04:50.444Z,5.38
2022-12-04T06:07:17.002Z,6.50
2022-12-04T06:09:43.477Z,5.05
2022-12-04T06:12:09.969Z,6.93
2022-12-04T06:14:39.751Z,6.40
2022-12-04T06:17:06.997Z,4.88
2022-12-04T06:19:33.520Z,7.00
2022-12-04T06:22:00.078Z,5.28
2022-12-04T06:24:26.711Z,4.18
2022-12-04T06:29:46.453Z,6.78
2022-12-04T06:32:16.467Z,6.30
2022-12-04T06:34:51.437Z,6.72
2022-12-04T06:37:17.969Z,5.60
2022-12-04T06:39:44.815Z,5.75
2022-12-04T06:42:11.401Z,5.30
2022-12-04T06:44:37.885Z,5.57
2022-12-04T06:47:05.287Z,6.22
2022-12-04T06:49:31.870Z,4.70
2022-12-04T06:51:58.452Z,4.93
2022-12-04T06:54:26.111Z,5.70
2022-12-04T06:56:55.410Z,4.43
2022-12-04T06:59:21.940Z,4.68
2022-12-04T07:01:48.524Z,5.85
2022-12-04T07:04:15.099Z,7.57
2022-12-04T07:06:41.702Z,4.65
2022-12-04T07:09:11.354Z,5.05
2022-12-04T07:11:39.221Z,4.80
2022-12-04T07:14:05.867Z,5.68
2022-12-04T07:16:39.911Z,6.13
2022-12-04T07:19:07.631Z,4.75
2022-12-04T07:21:34.802Z,5.30
2022-12-04T07:24:01.811Z,5.53
2022-12-04T07:26:29.781Z,6.97
2022-12-04T07:28:57.076Z,5.22
2022-12-04T07:31:24.817Z,7.60
2022-12-04T07:33:53.472Z,5.45
2022-12-04T07:36:20.959Z,5.57
2022-12-04T07:38:48.078Z,5.43
2022-12-04T07:41:15.148Z,4.63
2022-12-04T07:43:41.815Z,5.10
2022-12-04T07:46:13.873Z,5.93
2022-12-04T07:48:40.951Z,6.88
2022-12-04T07:51:16.308Z,5.55
2022-12-04T07:53:43.806Z,5.50
2022-12-04T07:56:11.466Z,4.95
2022-12-04T07:58:38.291Z,7.28
2022-12-04T08:01:12.242Z,5.53
2022-12-04T08:03:46.755Z,5.00
2022-12-04T08:06:14.048Z,4.97
2022-12-04T08:08:40.611Z,5.35
2022-12-04T08:11:09.147Z,6.30
2022-12-04T08:13:35.887Z,5.53
2022-12-04T08:16:06.616Z,6.07
2022-12-04T08:18:33.558Z,5.82
2022-12-04T08:21:08.341Z,6.20
2022-12-04T08:23:35.625Z,7.70
2022-12-04T08:26:03.005Z,5.78
2022-12-04T08:28:29.995Z,5.35
2022-12-04T08:31:02.669Z,6.07
2022-12-04T08:33:29.444Z,6.40
2022-12-04T08:35:55.948Z,7.45
2022-12-04T08:38:22.477Z,6.80
2022-12-04T08:40:49.033Z,7.30
2022-12-04T08:43:15.504Z,6.72
2022-12-04T08:45:42.007Z,7.45
2022-12-04T08:48:08.483Z,6.95
2022-12-04T08:50:37.727Z,8.60
2022-12-04T08:53:04.232Z,9.15
2022-12-04T08:55:30.778Z,8.52
2022-12-04T08:57:57.245Z,7.80
2022-12-04T09:00:25.930Z,10.40
2022-12-04T09:02:52.493Z,7.83
2022-12-04T09:05:19.116Z,8.52
2022-12-04T09:07:45.703Z,8.15
2022-12-04T09:10:12.734Z,7.38
2022-12-04T09:12:39.424Z,7.47
2022-12-04T09:15:07.191Z,7.90
2022-12-04T09:17:36.640Z,7.50
2022-12-04T09:20:08.050Z,6.60
2022-12-04T09:22:57.839Z,7.00
2022-12-04T09:25:22.208Z,6.65
2022-12-04T09:27:48.827Z,10.02
2022-12-04T09:30:15.418Z,7.60
2022-12-04T09:32:41.968Z,7.88
2022-12-04T09:35:08.751Z,6.85
2022-12-04T09:37:39.179Z,8.27
2022-12-04T09:40:07.115Z,6.88
2022-12-04T09:43:41.641Z,7.35
2022-12-04T09:46:14.217Z,8.38
2022-12-04T09:48:42.635Z,7.00
2022-12-04T09:51:18.407Z,7.38
2022-12-04T09:53:53.401Z,10.27
2022-12-04T09:56:21.351Z,5.20
2022-12-04T09:58:53.268Z,7.07
2022-12-04T10:01:23.658Z,9.40
2022-12-04T10:03:50.475Z,5.57
2022-12-04T10:06:24.506Z,8.00
2022-12-04T10:08:57.215Z,4.60
2022-12-04T10:11:32.330Z,6.45
2022-12-04T10:14:14.439Z,6.45
2022-12-04T10:16:59.661Z,6.20
2022-12-04T10:19:28.768Z,6.50
2022-12-04T10:22:14.750Z,7.70
2022-12-04T10:24:48.494Z,7.80
2022-12-04T10:27:22.278Z,6.30
2022-12-04T10:29:53.548Z,5.90
2022-12-04T10:32:42.635Z,5.30
2022-12-04T10:35:21.147Z,6.30
2022-12-04T10:37:51.846Z,5.97
2022-12-04T10:40:44.262Z,7.28
2022-12-04T10:43:19.004Z,5.85
2022-12-04T10:45:45.537Z,5.90
2022-12-04T10:48:26.255Z,6.40
2022-12-04T10:50:52.815Z,5.47
2022-12-04T10:53:25.368Z,5.97
2022-12-04T10:55:51.950Z,6.90
2022-12-04T10:58:20.502Z,5.63
2022-12-04T11:01:01.387Z,7.88
2022-12-04T11:03:29.241Z,6.70
2022-12-04T11:06:01.725Z,5.75
2022-12-04T11:08:39.663Z,6.65
2022-12-04T11:11:09.279Z,6.88
2022-12-04T11:13:36.329Z,5.53
2022-12-04T11:16:03.256Z,5.45
2022-12-04T11:18:36.318Z,5.95
2022-12-04T11:21:07.201Z,6.45
2022-12-04T11:23:41.153Z,5.72
2022-12-04T11:26:08.158Z,7.75
2022-12-04T11:28:42.970Z,6.55
2022-12-04T11:31:15.860Z,5.82
2022-12-04T11:33:48.541Z,6.55
2022-12-04T11:36:21.137Z,7.57
2022-12-04T11:38:48.071Z,6.93
2022-12-04T11:41:30.186Z,6.50
2022-12-04T11:44:00.307Z,5.28
2022-12-04T11:46:32.210Z,7.07
2022-12-04T11:48:59.334Z,7.50
2022-12-04T11:51:57.425Z,6.72
2022-12-04T11:54:45.267Z,5.97
2022-12-04T11:57:30.376Z,6.38
2022-12-04T12:00:09.399Z,6.95
2022-12-04T12:02:56.533Z,6.65
2022-12-04T12:05:27.378Z,6.28
2022-12-04T12:08:13.728Z,6.05
2022-12-04T12:11:00.719Z,7.15
2022-12-04T12:13:56.583Z,9.65
2022-12-04T12:16:38.412Z,5.15
2022-12-04T12:19:08.868Z,7.97
2022-12-04T12:22:05.229Z,6.47
2022-12-04T12:24:55.104Z,7.03
2022-12-04T12:27:45.000Z,6.07
2022-12-04T12:30:18.202Z,7.60
2022-12-04T12:33:03.445Z,6.82
2022-12-04T12:35:40.272Z,7.35
2022-12-04T12:38:11.169Z,8.02
2022-12-04T12:40:43.511Z,7.38
2022-12-04T12:43:14.730Z,6.40
2022-12-04T12:45:51.167Z,7.97
2022-12-04T12:48:38.638Z,6.60
2022-12-04T12:51:42.303Z,6.55
2022-12-04T12:54:30.716Z,6.53
2022-12-04T12:57:03.431Z,7.15
2022-12-04T12:59:30.176Z,6.78
2022-12-04T13:02:14.120Z,6.55
2022-12-04T13:04:42.807Z,7.18
2022-12-04T13:07:18.484Z,8.53
2022-12-04T13:09:49.194Z,7.03
2022-12-04T13:12:16.989Z,9.52
2022-12-04T13:14:48.669Z,7.25
2022-12-04T13:17:29.194Z,7.78
2022-12-04T13:19:57.274Z,7.70
2022-12-04T13:22:31.946Z,7.00
2022-12-04T13:25:17.271Z,8.38
2022-12-04T13:28:02.606Z,8.07
2022-12-04T13:30:54.613Z,7.75
2022-12-04T13:33:47.863Z,8.95
2022-12-04T13:36:46.472Z,8.50
2022-12-04T13:39:31.894Z,9.47
2022-12-04T13:42:00.983Z,9.80
2022-12-04T13:44:28.959Z,10.30
2022-12-04T13:47:05.100Z,10.48
2022-12-04T13:49:37.177Z,8.23
2022-12-04T13:52:05.990Z,10.88
2022-12-04T13:54:37.138Z,10.43
2022-12-04T13:57:12.467Z,7.60
2022-12-04T13:59:39.985Z,9.38
2022-12-04T14:02:22.003Z,10.63
2022-12-04T14:05:06.681Z,10.50
2022-12-04T14:07:34.154Z,9.35
2022-12-04T14:10:16.022Z,8.85
2022-12-04T14:12:49.002Z,10.82
2022-12-04T14:15:28.061Z,8.05
2022-12-04T14:18:12.425Z,8.80
2022-12-04T14:20:40.089Z,7.45
2022-12-04T14:23:19.945Z,9.00
2022-12-04T14:25:46.489Z,10.02
2022-12-04T14:28:42.653Z,7.82
2022-12-04T14:31:30.653Z,6.90
2022-12-04T14:34:00.007Z,6.93
2022-12-04T14:36:28.125Z,6.57
2022-12-04T14:39:28.187Z,6.95
2022-12-04T14:42:14.178Z,6.22
2022-12-04T14:44:41.478Z,6.85
2022-12-04T14:47:29.306Z,7.63
2022-12-04T14:50:28.231Z,5.95
2022-12-04T14:52:59.770Z,5.30
2022-12-04T14:55:53.023Z,6.43
2022-12-04T14:58:35.699Z,6.53
2022-12-04T15:01:05.152Z,7.07
2022-12-04T15:03:36.791Z,8.25
2022-12-04T15:06:12.287Z,6.28
2022-12-04T15:08:49.070Z,6.35
2022-12-04T15:11:38.411Z,7.05
2022-12-04T15:14:13.937Z,5.95
2022-12-04T15:16:41.011Z,5.78
2022-12-04T15:19:18.121Z,7.10
2022-12-04T15:21:45.121Z,7.00
2022-12-04T15:24:20.320Z,5.95
2022-12-04T15:26:48.514Z,5.70
2022-12-04T15:29:20.363Z,7.10
2022-12-04T15:31:53.584Z,6.78
2022-12-04T15:34:22.691Z,6.60
2022-12-04T15:37:00.672Z,6.35
2022-12-04T15:39:28.255Z,7.65
2022-12-04T15:42:30.756Z,6.43
2022-12-04T15:45:07.741Z,5.03
2022-12-04T15:47:43.169Z,5.65
2022-12-04T15:50:15.446Z,6.60
2022-12-04T15:53:14.205Z,7.35
2022-12-04T15:55:50.083Z,5.03
2022-12-04T15:58:28.792Z,6.35
2022-12-04T16:00:58.827Z,6.80
2022-12-04T16:03:50.205Z,6.65
2022-12-04T16:06:29.138Z,6.88
2022-12-04T16:09:25.963Z,4.85
2022-12-04T16:12:23.579Z,7.13
2022-12-04T16:14:52.580Z,5.88
2022-12-04T16:17:19.355Z,6.97
2022-12-04T16:19:46.061Z,6.32
2022-12-04T16:22:21.706Z,7.38
2022-12-04T16:24:48.451Z,6.25
2022-12-04T16:27:17.736Z,8.40
2022-12-04T16:29:45.500Z,6.45
2022-12-04T16:32:14.511Z,7.32
2022-12-04T16:34:44.033Z,6.45
2022-12-04T16:39:41.646Z,7.93
2022-12-04T16:42:33.014Z,5.93
2022-12-04T16:44:59.816Z,6.20
2022-12-04T16:47:26.694Z,8.52
2022-12-04T16:49:53.515Z,7.03
2022-12-04T16:52:20.702Z,6.68
2022-12-04T16:54:47.572Z,6.68
2022-12-04T16:57:14.220Z,7.30
2022-12-04T16:59:40.914Z,6.95
2022-12-04T17:02:24.580Z,7.03
2022-12-04T17:04:57.056Z,6.93
2022-12-04T17:07:24.520Z,8.60
2022-12-04T17:09:54.105Z,9.00
2022-12-04T17:14:47.142Z,8.70
2022-12-04T17:17:13.775Z,8.02
2022-12-04T17:19:40.350Z,8.35
2022-12-04T17:22:07.889Z,8.95
2022-12-04T17:24:37.802Z,8.48
2022-12-04T17:27:07.936Z,9.40
2022-12-04T17:29:34.753Z,9.15
2022-12-04T17:32:01.435Z,10.02
2022-12-04T17:34:28.158Z,10.10
2022-12-04T17:36:56.398Z,10.50
2022-12-04T17:39:23.616Z,11.25
2022-12-04T17:41:50.149Z,10.57
2022-12-04T17:44:16.650Z,13.30
2022-12-04T17:46:44.233Z,12.02
2022-12-04T17:49:11.288Z,12.23
2022-12-04T17:51:37.968Z,13.65
2022-12-04T17:54:05.662Z,11.40
2022-12-04T17:56:32.855Z,14.25
2022-12-04T17:58:59.471Z,12.80
2022-12-04T18:01:28.698Z,12.73
2022-12-04T18:04:00.311Z,12.75
2022-12-04T18:06:29.580Z,14.05
2022-12-04T18:08:56.718Z,12.18
2022-12-04T18:11:25.616Z,12.65
2022-12-04T18:13:57.681Z,11.15
2022-12-04T18:16:25.155Z,11.52
2022-12-04T18:18:59.563Z,11.80
2022-12-04T18:21:26.405Z,11.38
2022-12-04T18:23:53.744Z,11.88
2022-12-04T18:26:27.004Z,11.75
2022-12-04T18:28:56.313Z,11.70
2022-12-04T18:31:22.971Z,9.23
2022-12-04T18:33:50.251Z,10.02
2022-12-04T18:36:22.178Z,12.00
2022-12-04T18:38:54.743Z,12.02
2022-12-04T18:41:21.577Z,11.40
2022-12-04T18:43:48.206Z,12.90
2022-12-04T18:46:16.398Z,9.95
2022-12-04T18:48:44.511Z,7.72
2022-12-04T18:51:24.861Z,8.20
2022-12-04T18:53:53.127Z,6.95
2022-12-04T18:56:19.881Z,8.30
2022-12-04T18:58:49.199Z,6.30
2022-12-04T19:01:21.090Z,6.68
2022-12-04T19:03:47.985Z,6.90
2022-12-04T19:06:17.835Z,5.18
2022-12-04T19:08:44.634Z,6.25
2022-12-04T19:11:16.973Z,4.72
2022-12-04T19:13:43.758Z,5.05
2022-12-04T19:16:15.146Z,4.68
2022-12-04T19:18:42.839Z,5.72
2022-12-04T19:21:09.620Z,4.13
2022-12-04T19:23:39.025Z,4.40
2022-12-04T19:26:06.195Z,4.63
2022-12-04T19:28:33.449Z,4.63
2022-12-04T19:31:00.202Z,4.97
2022-12-04T19:33:27.834Z,4.32
2022-12-04T19:36:05.311Z,4.03
2022-12-04T19:38:33.112Z,3.83
2022-12-04T19:41:03.871Z,6.53
2022-12-04T19:43:30.505Z,6.38
2022-12-04T19:45:57.311Z,5.28
2022-12-04T19:48:24.084Z,5.40
2022-12-04T19:50:50.784Z,5.40
2022-12-04T19:53:17.584Z,5.25
2022-12-04T19:55:44.368Z,6.05
2022-12-04T19:58:10.947Z,5.03
2022-12-04T20:00:37.490Z,6.13
2022-12-04T20:03:04.360Z,4.88
2022-12-04T20:05:31.076Z,6.35
2022-12-04T20:10:23.320Z,7.25
2022-12-04T20:12:49.914Z,6.32
2022-12-04T20:15:16.652Z,6.18
2022-12-04T20:17:43.165Z,6.05
2022-12-04T20:20:09.916Z,6.03
2022-12-04T20:22:36.918Z,6.32
2022-12-04T20:25:03.696Z,6.60
2022-12-04T20:27:30.227Z,5.95
2022-12-04T20:29:57.073Z,7.55
2022-12-04T20:32:23.796Z,7.45
2022-12-04T20:34:50.393Z,8.38
2022-12-04T20:37:17.029Z,7.35
2022-12-04T20:39:43.750Z,9.18
2022-12-04T20:42:10.335Z,9.30
2022-12-04T20:44:36.960Z,7.95
2022-12-04T20:47:03.494Z,7.65
2022-12-04T20:49:30.088Z,7.15
2022-12-04T20:51:56.777Z,8.98
2022-12-04T20:54:23.382Z,8.35
2022-12-04T20:56:52.756Z,10.15
2022-12-04T20:59:20.769Z,11.07
2022-12-04T21:01:49.164Z,11.43
2022-12-04T21:04:17.861Z,8.95
2022-12-04T21:06:46.675Z,9.47
2022-12-04T21:09:22.823Z,9.87
2022-12-04T21:11:51.813Z,10.32
2022-12-04T21:14:42.621Z,9.50
2022-12-04T21:17:11.835Z,12.00
2022-12-04T21:19:38.869Z,10.27
2022-12-04T21:22:05.889Z,9.32
2022-12-04T21:24:38.111Z,9.95
2022-12-04T21:27:09.243Z,11.40
2022-12-04T21:29:37.509Z,10.40
2022-12-04T21:32:05.481Z,10.07
2022-12-04T21:34:32.686Z,9.88
2022-12-04T21:36:59.347Z,10.82
2022-12-04T21:39:26.034Z,10.35
2022-12-04T21:42:11.514Z,11.45
2022-12-04T21:44:38.378Z,12.02
2022-12-04T21:47:05.226Z,11.25
2022-12-04T21:49:31.819Z,11.90
2022-12-04T21:51:59.291Z,11.63
2022-12-04T21:54:29.883Z,11.35
2022-12-04T21:56:57.440Z,10.57
2022-12-04T21:59:24.924Z,14.52
2022-12-04T22:01:51.814Z,10.73
2022-12-04T22:04:18.581Z,11.57
2022-12-04T22:06:45.178Z,13.20
2022-12-04T22:09:12.859Z,10.68
2022-12-04T22:11:43.252Z,12.18
2022-12-04T22:14:11.433Z,11.35
2022-12-04T22:16:42.471Z,12.30
2022-12-04T22:19:13.364Z,9.38
2022-12-04T22:21:40.332Z,13.80
2022-12-04T22:24:07.501Z,11.65
2022-12-04T22:26:37.969Z,11.68
2022-12-04T22:29:26.749Z,11.13
2022-12-04T22:31:51.498Z,10.50
2022-12-04T22:34:18.137Z,12.25
2022-12-04T22:36:44.750Z,11.93
2022-12-04T22:39:11.494Z,10.68
2022-12-04T22:41:38.543Z,11.93
2022-12-04T22:44:05.319Z,12.13
2022-12-04T22:46:32.215Z,13.18
2022-12-04T22:48:59.305Z,11.23
2022-12-04T22:51:26.209Z,13.43
2022-12-04T22:53:55.753Z,12.68
2022-12-04T22:58:50.973Z,11.20
2022-12-04T23:01:39.679Z,11.70
2022-12-04T23:04:06.253Z,11.02
2022-12-04T23:06:33.645Z,12.60
2022-12-04T23:09:05.825Z,11.38
2022-12-04T23:11:32.353Z,10.50
2022-12-04T23:14:01.352Z,13.98
2022-12-04T23:16:30.243Z,11.02
2022-12-04T23:18:57.452Z,12.38
2022-12-04T23:21:24.709Z,11.45
2022-12-04T23:23:52.552Z,10.70
2022-12-04T23:26:21.395Z,11.23
2022-12-04T23:28:48.159Z,10.65
2022-12-04T23:31:15.574Z,14.18
2022-12-04T23:33:42.388Z,12.25
2022-12-04T23:36:10.939Z,9.43
2022-12-04T23:38:38.916Z,11.88
2022-12-04T23:41:13.126Z,12.57
2022-12-04T23:43:40.635Z,11.27
2022-12-04T23:46:11.245Z,10.82
2022-12-04T23:48:39.399Z,13.65
2022-12-04T23:51:06.515Z,10.55
2022-12-04T23:53:32.993Z,9.07
2022-12-04T23:56:05.002Z,11.50
2022-12-04T23:58:32.514Z,10.85
